Safety Harbor, Florida
Current Conditions -  °F | °C
As of 11:15 AM on Sunday 25 Jan 2015 (Local Time) from KCLW Reporting Station
Clear Clear  
Wind Chill: 55°   Ceiling: Unl
Heat Index: 55°   Visibility: 10mi
Dew Point: 41°   Wind: 0mph
Humidity: 58%   Direction: NA
Pressure: 30.1"   Gusts: NA
Location:  27.99°N, 82.69°W
Report Text: KCLW 251615Z AUTO 00000KT 10SM CLR 13/05 A3010 RMK AO2
Loading
Personal Weather Stations






























Interactive Weather Map New forecast layout! Learn more

10-Day Weather Forecast

Advertisements
Track Severe Weather on mobile